Time;durP1;ratioP1;P1;durP2;ratioP2;P2;SDS_P1;SDS_P2;PMS_P1;PMS_P2;Temp;Humidity;BMP_temperature;BMP_pressure;BME280_temperature;BME280_humidity;BME280_pressure;Samples;Min_cycle;Max_cycle;Signal;HPM_P1;HPM_P2
2023/04/25 00:01:46;;;;;;;0.90;0.90;;;8.10;99.90;9.30;96009.00;;;;5100523;28;20691;-66
2023/04/25 00:04:35;;;;;;;1.67;0.93;;;8.10;99.90;8.80;96001.00;;;;5099638;28;20549;-66
2023/04/25 00:07:24;;;;;;;1.60;0.90;;;7.90;99.90;9.10;96004.00;;;;5104484;28;20198;-67
2023/04/25 00:10:12;;;;;;;1.80;0.90;;;7.80;99.90;9.20;95995.00;;;;5103909;28;20237;-67
2023/04/25 00:13:02;;;;;;;3.23;0.90;;;7.80;99.90;9.30;95994.00;;;;5107754;28;20300;-67
2023/04/25 00:15:51;;;;;;;0.83;0.83;;;7.80;99.90;9.50;95993.00;;;;5107307;28;20584;-66
2023/04/25 00:18:42;;;;;;;3.00;1.00;;;7.90;99.90;9.60;95986.00;;;;5107133;28;20198;-67
2023/04/25 00:21:32;;;;;;;1.20;1.10;;;7.90;99.90;9.60;95988.00;;;;5104264;28;20276;-67
2023/04/25 00:24:21;;;;;;;2.30;0.87;;;7.90;99.90;9.50;95984.00;;;;5102693;28;20262;-67
2023/04/25 00:27:09;;;;;;;1.57;0.70;;;7.90;99.90;9.20;95996.00;;;;5101779;28;20222;-67
2023/04/25 00:29:58;;;;;;;1.13;0.83;;;7.90;99.90;9.20;95999.00;;;;5106953;28;20685;-67
2023/04/25 00:32:47;;;;;;;0.90;0.80;;;7.90;99.90;9.10;95992.00;;;;5100460;28;20223;-67
2023/04/25 00:35:37;;;;;;;1.10;1.00;;;7.80;99.90;9.30;95994.00;;;;5104676;28;20948;-67
2023/04/25 00:38:26;;;;;;;0.83;0.83;;;7.80;99.90;9.40;95992.00;;;;5109317;28;20232;-67
2023/04/25 00:41:15;;;;;;;1.43;0.93;;;7.80;99.90;9.40;96000.00;;;;5110669;28;20290;-67
2023/04/25 00:44:04;;;;;;;1.50;1.00;;;7.80;99.90;9.10;95983.00;;;;5107485;28;20226;-67
2023/04/25 00:46:55;;;;;;;1.00;0.83;;;7.70;99.90;8.90;95995.00;;;;5103838;28;20328;-67
2023/04/25 00:49:44;;;;;;;0.80;0.77;;;7.70;99.90;8.30;95985.00;;;;5102715;28;20574;-68
2023/04/25 00:52:34;;;;;;;3.07;0.90;;;7.50;99.90;8.70;95998.00;;;;5110444;28;20300;-68
2023/04/25 00:55:23;;;;;;;4.30;1.57;;;7.40;99.90;8.40;95982.00;;;;5103596;28;20187;-67
2023/04/25 00:58:11;;;;;;;1.43;1.13;;;7.30;99.90;8.20;95981.00;;;;5109618;28;20679;-65
2023/04/25 01:01:01;;;;;;;1.83;1.13;;;7.20;99.90;8.10;95965.00;;;;5110406;28;20218;-66
2023/04/25 01:03:51;;;;;;;1.30;0.90;;;7.10;99.90;8.50;95982.00;;;;5104842;28;20209;-66
2023/04/25 01:06:40;;;;;;;0.93;0.90;;;7.10;99.90;8.40;95984.00;;;;5102838;28;20199;-67
2023/04/25 01:09:32;;;;;;;1.87;0.80;;;7.10;99.90;7.90;95967.00;;;;5095459;28;20555;-66
2023/04/25 01:12:20;;;;;;;0.70;0.70;;;7.00;99.90;7.70;95978.00;;;;5110473;28;20724;-66
2023/04/25 01:15:10;;;;;;;2.00;0.70;;;6.80;99.90;8.20;95972.00;;;;5107462;28;20257;-67
2023/04/25 01:18:00;;;;;;;1.03;0.90;;;6.80;99.90;8.20;95975.00;;;;5102041;28;20692;-69
2023/04/25 01:20:52;;;;;;;0.70;0.70;;;6.80;99.90;8.30;95980.00;;;;5101689;28;20197;-68
2023/04/25 01:23:43;;;;;;;1.57;1.10;;;6.80;99.90;8.00;95973.00;;;;5103065;28;20222;-67
2023/04/25 01:26:32;;;;;;;1.37;1.27;;;6.70;99.90;7.60;95959.00;;;;5105332;28;20277;-67
2023/04/25 01:29:21;;;;;;;1.20;1.10;;;6.70;99.90;7.60;95959.00;;;;5105325;28;20230;-67
2023/04/25 01:32:11;;;;;;;2.00;0.97;;;6.50;99.90;7.70;95967.00;;;;5104052;28;20218;-65
2023/04/25 01:35:00;;;;;;;1.20;1.10;;;6.50;99.90;7.40;95963.00;;;;5104571;28;20198;-64
2023/04/25 01:37:49;;;;;;;1.80;0.97;;;6.40;99.90;7.80;95986.00;;;;5106946;28;20195;-66
2023/04/25 01:40:41;;;;;;;5.27;1.23;;;6.50;99.90;7.70;95983.00;;;;5101802;28;20689;-67
2023/04/25 01:43:30;;;;;;;0.80;0.80;;;6.50;99.90;7.70;95986.00;;;;5101753;28;20263;-66
2023/04/25 01:46:19;;;;;;;1.43;0.83;;;6.40;99.90;7.40;95980.00;;;;5104190;28;20266;-66
2023/04/25 01:49:08;;;;;;;2.30;1.03;;;6.30;99.90;7.30;95982.00;;;;5103615;28;20199;-65
2023/04/25 01:51:56;;;;;;;1.50;1.00;;;6.20;99.90;7.20;95980.00;;;;5098667;28;20245;-66
2023/04/25 01:54:45;;;;;;;0.80;0.80;;;6.10;99.90;7.50;95988.00;;;;5098679;28;20206;-66
2023/04/25 01:57:35;;;;;;;0.70;0.70;;;6.10;99.90;7.30;95985.00;;;;5103803;28;20198;-66
2023/04/25 02:00:25;;;;;;;1.33;1.00;;;6.10;99.90;7.00;95978.00;;;;5103413;28;20317;-67
2023/04/25 02:03:13;;;;;;;1.30;1.20;;;6.00;99.90;7.20;95983.00;;;;5107182;28;20620;-67
2023/04/25 02:06:02;;;;;;;1.77;1.10;;;5.90;99.90;7.20;95992.00;;;;5104278;28;20305;-67
2023/04/25 02:08:51;;;;;;;0.67;0.67;;;5.80;99.90;7.30;95988.00;;;;5105003;28;20217;-66
2023/04/25 02:11:39;;;;;;;5.17;1.00;;;5.80;99.90;7.00;95973.00;;;;5101024;28;20229;-67
2023/04/25 02:14:29;;;;;;;1.10;1.00;;;5.90;99.90;6.90;95983.00;;;;5104273;28;20307;-66
2023/04/25 02:17:18;;;;;;;1.10;1.00;;;5.80;99.90;7.00;95993.00;;;;5103879;28;20203;-67
2023/04/25 02:20:08;;;;;;;0.90;0.80;;;5.80;99.90;7.00;95997.00;;;;5102678;28;20688;-66
2023/04/25 02:22:57;;;;;;;0.80;0.80;;;5.70;99.90;6.60;95989.00;;;;5106817;28;20234;-68
2023/04/25 02:25:45;;;;;;;3.60;0.97;;;5.70;99.90;6.90;95999.00;;;;5102325;28;20253;-68
2023/04/25 02:28:34;;;;;;;1.67;1.00;;;5.70;99.90;6.90;95992.00;;;;5103583;28;20191;-66
2023/04/25 02:31:24;;;;;;;0.67;0.63;;;5.70;99.90;7.40;95999.00;;;;5102500;28;20196;-67
2023/04/25 02:34:13;;;;;;;1.10;0.97;;;5.80;99.90;7.30;96007.00;;;;5102510;28;20267;-68
2023/04/25 02:37:02;;;;;;;1.23;0.70;;;5.80;99.90;7.10;95999.00;;;;5102818;28;20233;-70
2023/04/25 02:39:51;;;;;;;1.03;0.90;;;5.80;99.90;6.60;96002.00;;;;5097542;28;20681;-69
2023/04/25 02:42:39;;;;;;;0.80;0.80;;;5.70;99.90;6.50;95997.00;;;;5099630;28;20299;-69
2023/04/25 02:45:28;;;;;;;1.50;1.37;;;5.60;99.90;6.30;95992.00;;;;5098433;28;20203;-69
2023/04/25 02:48:18;;;;;;;1.50;1.40;;;5.50;99.90;6.50;95997.00;;;;5102819;28;20199;-69
2023/04/25 02:51:07;;;;;;;2.10;1.80;;;5.40;99.90;6.60;95990.00;;;;5101740;28;20199;-69
2023/04/25 02:53:56;;;;;;;1.20;1.10;;;5.30;99.90;6.70;95995.00;;;;5094083;28;20319;-69
2023/04/25 02:56:44;;;;;;;0.87;0.87;;;5.30;99.90;6.50;95994.00;;;;5093968;28;20260;-70
2023/04/25 02:59:34;;;;;;;0.80;0.80;;;5.20;99.90;6.30;95985.00;;;;5092591;28;20202;-67
2023/04/25 03:02:22;;;;;;;0.80;0.80;;;5.20;99.90;6.10;95981.00;;;;5098220;28;20227;-69
2023/04/25 03:05:12;;;;;;;0.70;0.70;;;5.30;99.90;6.50;95995.00;;;;5100303;28;20195;-68
2023/04/25 03:08:01;;;;;;;1.20;0.80;;;5.30;99.90;6.80;96003.00;;;;5103925;28;20307;-68
2023/04/25 03:10:51;;;;;;;1.10;1.00;;;5.40;99.90;6.70;95999.00;;;;5104087;28;20198;-69
2023/04/25 03:13:40;;;;;;;3.13;0.90;;;5.40;99.90;6.30;95993.00;;;;5103525;28;20263;-67
2023/04/25 03:16:29;;;;;;;0.70;0.70;;;5.40;99.90;6.00;95985.00;;;;5093834;28;20191;-70
2023/04/25 03:19:18;;;;;;;0.83;0.83;;;5.30;99.90;6.30;95987.00;;;;5103181;28;20688;-70
2023/04/25 03:22:08;;;;;;;0.80;0.80;;;5.30;99.90;6.50;95987.00;;;;5105384;28;20297;-70
2023/04/25 03:24:57;;;;;;;0.93;0.83;;;5.20;99.90;6.00;95989.00;;;;5101872;28;20218;-67
2023/04/25 03:27:45;;;;;;;1.37;1.27;;;5.20;99.90;6.00;95984.00;;;;5096858;28;20427;-69
2023/04/25 03:30:34;;;;;;;1.30;1.20;;;5.10;99.90;5.90;95983.00;;;;5097367;28;20194;-68
2023/04/25 03:33:23;;;;;;;1.03;0.90;;;5.10;99.90;6.20;95992.00;;;;5099783;28;20215;-68
2023/04/25 03:36:12;;;;;;;0.93;0.93;;;5.10;99.90;6.40;95986.00;;;;5098568;28;20234;-69
2023/04/25 03:39:02;;;;;;;1.77;0.80;;;5.20;99.90;6.50;95997.00;;;;5092867;28;20276;-69
2023/04/25 03:41:51;;;;;;;0.70;0.70;;;5.20;99.90;6.00;95991.00;;;;5092199;28;20264;-66
2023/04/25 03:44:39;;;;;;;0.87;0.87;;;5.20;99.90;6.40;95991.00;;;;5088585;28;20253;-69
2023/04/25 03:47:28;;;;;;;0.83;0.80;;;5.20;99.90;6.40;96008.00;;;;5080927;28;20343;-69
2023/04/25 03:50:17;;;;;;;0.90;0.90;;;5.20;99.90;6.40;96003.00;;;;5101736;28;20187;-69
2023/04/25 03:53:05;;;;;;;3.77;1.00;;;5.10;99.90;6.00;96001.00;;;;5094978;28;20828;-70
2023/04/25 03:55:55;;;;;;;1.40;1.00;;;5.10;99.90;6.20;96000.00;;;;5098361;28;20196;-69
2023/04/25 03:58:44;;;;;;;0.83;0.83;;;5.00;99.90;6.20;96000.00;;;;5099713;28;20264;-70
2023/04/25 04:01:33;;;;;;;1.23;0.90;;;5.00;99.90;5.70;95988.00;;;;5098889;28;20203;-69
2023/04/25 04:04:22;;;;;;;4.90;0.97;;;4.90;99.90;5.70;95991.00;;;;5101341;28;20607;-70
2023/04/25 04:07:11;;;;;;;1.67;1.17;;;4.70;99.90;6.10;95998.00;;;;5103974;28;20626;-70
2023/04/25 04:10:00;;;;;;;0.80;0.80;;;4.80;99.90;6.10;96008.00;;;;5103818;28;20275;-70
2023/04/25 04:12:50;;;;;;;0.63;0.63;;;4.80;99.90;5.70;96011.00;;;;5106836;28;20225;-70
2023/04/25 04:15:39;;;;;;;2.87;0.90;;;4.70;99.90;5.70;96011.00;;;;5111396;28;20657;-70
2023/04/25 04:18:27;;;;;;;1.00;0.97;;;4.60;99.90;5.70;96013.00;;;;5100616;27;20743;-70
2023/04/25 04:21:16;;;;;;;1.17;0.80;;;4.60;99.90;6.00;96021.00;;;;5103605;28;20201;-70
2023/04/25 04:24:05;;;;;;;2.03;1.00;;;4.50;99.90;5.80;96016.00;;;;5100569;28;20276;-69
2023/04/25 04:26:54;;;;;;;1.23;1.17;;;4.20;99.90;5.70;96001.00;;;;5091725;28;20689;-69
2023/04/25 04:29:45;;;;;;;1.67;1.33;;;4.60;99.90;6.10;96008.00;;;;5105383;28;20194;-68
2023/04/25 04:32:34;;;;;;;1.00;1.00;;;4.60;99.90;6.10;96020.00;;;;5101460;28;20248;-69
2023/04/25 04:35:23;;;;;;;0.80;0.80;;;4.70;99.90;6.00;96012.00;;;;5109819;28;20190;-69
2023/04/25 04:38:12;;;;;;;2.70;1.40;;;4.70;99.90;5.50;96016.00;;;;5109513;28;20206;-69
2023/04/25 04:41:00;;;;;;;1.07;1.00;;;4.60;99.90;5.40;96015.00;;;;5110983;28;20198;-68
2023/04/25 04:43:49;;;;;;;1.10;1.00;;;4.50;99.90;5.90;96021.00;;;;5103105;28;20225;-67
2023/04/25 04:46:41;;;;;;;1.10;1.00;;;4.50;99.90;6.20;96013.00;;;;5097370;28;20224;-69
2023/04/25 04:49:30;;;;;;;1.40;1.00;;;4.60;99.90;6.00;96017.00;;;;5104501;27;20196;-68
2023/04/25 04:52:19;;;;;;;1.03;0.80;;;4.70;99.90;6.00;96019.00;;;;5104504;28;20207;-68
2023/04/25 04:55:09;;;;;;;0.80;0.67;;;4.70;99.90;5.80;96016.00;;;;5106442;28;20218;-67
2023/04/25 04:57:57;;;;;;;1.30;1.03;;;4.60;99.90;5.60;96008.00;;;;5104066;28;20221;-69
2023/04/25 05:00:47;;;;;;;1.17;0.90;;;4.70;99.90;5.80;96005.00;;;;5100940;28;20202;-69
2023/04/25 05:03:37;;;;;;;1.33;1.30;;;4.70;99.90;6.40;96003.00;;;;5102876;27;20625;-69
2023/04/25 05:06:26;;;;;;;4.07;1.30;;;4.70;99.90;6.70;96012.00;;;;5101159;28;20221;-67
2023/04/25 05:09:15;;;;;;;1.10;0.80;;;4.90;99.90;6.50;96008.00;;;;5096230;28;20709;-69
2023/04/25 05:12:04;;;;;;;0.93;0.90;;;5.00;99.90;6.20;95996.00;;;;5092262;27;20231;-67
2023/04/25 05:14:52;;;;;;;1.47;1.30;;;5.00;99.90;6.10;96004.00;;;;5111551;27;20234;-66
2023/04/25 05:17:41;;;;;;;1.00;1.00;;;5.00;99.90;6.20;95991.00;;;;5110536;27;20306;-66
2023/04/25 05:20:32;;;;;;;1.73;1.23;;;5.00;99.90;6.60;96006.00;;;;5093491;28;20677;-68
2023/04/25 05:23:20;;;;;;;1.60;1.23;;;5.10;99.90;6.80;96003.00;;;;5087507;28;20231;-66
2023/04/25 05:26:13;;;;;;;1.67;1.13;;;5.20;99.90;6.50;95999.00;;;;5106703;28;20240;-69
2023/04/25 05:29:02;;;;;;;0.83;0.83;;;5.30;99.90;6.60;95995.00;;;;5102962;28;20194;-68
2023/04/25 05:31:50;;;;;;;1.80;1.17;;;5.30;99.90;6.80;96002.00;;;;5103220;28;20351;-69
2023/04/25 05:34:39;;;;;;;1.07;1.03;;;5.40;99.90;6.30;95988.00;;;;5101246;27;20199;-72
2023/04/25 05:37:30;;;;;;;1.60;0.90;;;5.40;99.90;7.10;96001.00;;;;5088737;28;20210;-69
2023/04/25 05:40:19;;;;;;;0.63;0.63;;;5.60;99.90;7.50;95990.00;;;;5102745;28;20248;-68
2023/04/25 05:43:07;;;;;;;0.90;0.90;;;5.70;99.90;7.70;95997.00;;;;5108756;28;20218;-68
2023/04/25 05:45:56;;;;;;;5.60;1.20;;;6.00;99.90;7.70;95991.00;;;;5107031;28;20203;-68
2023/04/25 05:48:45;;;;;;;0.87;0.87;;;6.10;99.90;7.70;95988.00;;;;5102092;28;20187;-68
2023/04/25 05:51:33;;;;;;;1.27;0.87;;;6.20;99.90;7.80;95996.00;;;;5106756;28;20198;-68
2023/04/25 05:54:23;;;;;;;1.77;1.07;;;6.30;99.90;7.50;95997.00;;;;5101826;28;20255;-66
2023/04/25 05:57:22;;;;;;;0.97;0.93;;;6.30;99.90;7.60;95995.00;;;;5105677;28;20295;-67
2023/04/25 06:00:12;;;;;;;0.73;0.73;;;6.40;99.90;7.70;95992.00;;;;5106675;28;20214;-66
2023/04/25 06:03:02;;;;;;;0.90;0.70;;;6.40;99.90;8.10;95992.00;;;;5105455;28;20647;-66
2023/04/25 06:05:50;;;;;;;1.73;0.87;;;6.50;99.90;8.40;95990.00;;;;5101881;28;20632;-67
2023/04/25 06:08:39;;;;;;;0.73;0.73;;;6.60;99.90;8.40;95996.00;;;;5096333;28;20205;-66
2023/04/25 06:11:29;;;;;;;0.83;0.83;;;6.80;99.90;8.40;95988.00;;;;5105762;28;20198;-66
2023/04/25 06:14:18;;;;;;;1.17;1.07;;;6.90;99.90;8.60;95997.00;;;;5106219;28;20350;-66
2023/04/25 06:17:08;;;;;;;1.10;0.90;;;7.00;99.90;8.60;95988.00;;;;5099657;28;20198;-66
2023/04/25 06:19:56;;;;;;;0.83;0.80;;;7.00;99.90;8.60;95983.00;;;;5098696;28;20599;-67
2023/04/25 06:22:45;;;;;;;1.07;0.97;;;7.20;99.90;8.90;95984.00;;;;5108274;28;20363;-66
2023/04/25 06:25:34;;;;;;;1.43;0.80;;;7.20;99.90;9.00;95982.00;;;;5104156;28;20223;-67
2023/04/25 06:28:24;;;;;;;1.13;0.97;;;7.40;99.90;9.30;95974.00;;;;5099361;28;20210;-67
2023/04/25 06:31:13;;;;;;;0.70;0.70;;;7.50;99.90;9.60;95975.00;;;;5104369;28;20198;-67
2023/04/25 06:34:02;;;;;;;0.90;0.90;;;7.70;99.90;9.90;95972.00;;;;5107638;28;20194;-67
2023/04/25 06:36:50;;;;;;;0.70;0.70;;;8.00;99.90;10.20;95964.00;;;;5107420;28;20252;-66
2023/04/25 06:39:39;;;;;;;1.27;1.17;;;8.20;99.90;10.40;95964.00;;;;5101809;28;20191;-67
2023/04/25 06:42:28;;;;;;;0.60;0.60;;;8.40;99.90;10.80;95961.00;;;;5099036;28;20237;-67
2023/04/25 06:45:18;;;;;;;0.93;0.93;;;8.60;99.90;10.70;95951.00;;;;5105331;28;20731;-69
2023/04/25 06:48:07;;;;;;;0.67;0.67;;;8.80;99.90;11.00;95959.00;;;;5097214;28;20198;-69
2023/04/25 06:50:56;;;;;;;0.90;0.90;;;9.00;99.90;11.10;95970.00;;;;5103253;28;20197;-67
2023/04/25 06:53:45;;;;;;;0.97;0.87;;;9.20;99.90;11.30;95959.00;;;;5099960;28;20206;-67
2023/04/25 06:56:33;;;;;;;1.63;1.53;;;9.40;99.90;11.90;95962.00;;;;5105335;28;20344;-67
2023/04/25 06:59:23;;;;;;;2.13;1.40;;;9.60;99.90;12.10;95948.00;;;;5106195;28;20320;-67
2023/04/25 07:02:14;;;;;;;1.40;1.20;;;9.80;99.90;12.50;95957.00;;;;5108016;28;20226;-67
2023/04/25 07:05:03;;;;;;;5.70;1.77;;;10.10;99.90;12.80;95950.00;;;;5107432;28;20226;-67
2023/04/25 07:07:52;;;;;;;1.97;1.77;;;10.20;99.90;13.10;95950.00;;;;5101682;28;20359;-67
2023/04/25 07:10:41;;;;;;;1.27;1.17;;;10.60;99.90;13.40;95943.00;;;;5102697;28;20194;-67
2023/04/25 07:13:30;;;;;;;3.50;1.43;;;10.80;99.90;13.60;95957.00;;;;5099996;28;20688;-67
2023/04/25 07:16:18;;;;;;;2.40;1.37;;;11.10;99.90;13.40;95949.00;;;;5105066;28;20207;-67
2023/04/25 07:19:08;;;;;;;1.90;1.10;;;11.20;99.90;13.40;95933.00;;;;5104279;28;20259;-67
2023/04/25 07:21:57;;;;;;;1.33;1.23;;;11.30;99.90;13.80;95936.00;;;;5100213;28;20693;-67
2023/04/25 07:24:48;;;;;;;1.03;0.80;;;11.50;99.90;14.00;95927.00;;;;5104717;28;20226;-67
2023/04/25 07:27:37;;;;;;;2.40;1.17;;;11.60;99.90;13.80;95922.00;;;;5096627;28;20203;-67
2023/04/25 07:30:25;;;;;;;1.53;0.87;;;11.70;99.90;14.30;95919.00;;;;5105711;28;20269;-67
2023/04/25 07:33:14;;;;;;;0.77;0.77;;;11.90;99.90;14.70;95924.00;;;;5102197;28;20227;-67
2023/04/25 07:36:05;;;;;;;1.40;0.97;;;12.20;99.90;15.10;95914.00;;;;5107193;28;21555;-67
2023/04/25 07:38:53;;;;;;;1.47;1.23;;;12.40;99.90;14.90;95926.00;;;;5106385;28;20289;-67
2023/04/25 07:41:42;;;;;;;1.23;0.87;;;12.60;99.90;14.90;95922.00;;;;5107284;28;20222;-67
2023/04/25 07:44:31;;;;;;;1.43;0.93;;;12.70;99.90;15.30;95922.00;;;;5101013;28;20210;-67
2023/04/25 07:47:20;;;;;;;1.73;1.00;;;12.90;99.90;14.40;95912.00;;;;5108716;28;20279;-67
2023/04/25 07:50:10;;;;;;;1.80;0.90;;;12.90;98.00;14.80;95909.00;;;;5110798;28;20221;-67
2023/04/25 07:53:00;;;;;;;1.63;0.90;;;13.00;98.40;15.80;95916.00;;;;5101738;28;20210;-67
2023/04/25 07:55:49;;;;;;;1.77;0.80;;;13.30;97.90;16.40;95919.00;;;;5106171;28;20205;-67
2023/04/25 07:58:38;;;;;;;0.80;0.80;;;13.60;97.90;16.70;95920.00;;;;5108615;28;20207;-67
2023/04/25 08:01:26;;;;;;;1.73;1.20;;;14.00;96.40;15.30;95939.00;;;;5102956;28;20206;-71
2023/04/25 08:04:15;;;;;;;3.70;0.93;;;14.00;93.50;14.50;95916.00;;;;5107530;28;20562;-65
2023/04/25 08:07:04;;;;;;;1.33;0.90;;;13.70;92.30;15.50;95921.00;;;;5106998;28;20198;-68
2023/04/25 08:09:55;;;;;;;1.30;0.90;;;13.70;94.10;15.70;95930.00;;;;5108326;28;20191;-68
2023/04/25 08:12:44;;;;;;;1.07;0.97;;;13.70;90.50;15.90;95939.00;;;;5110484;28;20681;-68
2023/04/25 08:15:32;;;;;;;0.80;0.80;;;13.80;87.50;16.10;95929.00;;;;5103657;28;20225;-68
2023/04/25 08:18:21;;;;;;;2.57;1.17;;;13.90;86.10;16.00;95927.00;;;;5103829;28;20569;-67
2023/04/25 08:21:11;;;;;;;0.80;0.60;;;14.00;85.60;16.30;95914.00;;;;5099636;28;20190;-67
2023/04/25 08:24:00;;;;;;;0.97;0.97;;;14.10;86.20;17.10;95921.00;;;;5105347;28;20203;-67
2023/04/25 08:26:53;;;;;;;0.87;0.73;;;14.40;83.00;16.50;95936.00;;;;5106702;28;20199;-68
2023/04/25 08:29:43;;;;;;;1.30;0.90;;;14.60;80.40;16.20;95938.00;;;;5109469;28;20666;-67
2023/04/25 08:32:32;;;;;;;1.60;0.97;;;14.60;78.80;16.50;95938.00;;;;5110806;28;20299;-67
2023/04/25 08:35:21;;;;;;;4.33;0.80;;;14.50;80.40;15.40;95935.00;;;;5110146;28;20199;-71
2023/04/25 08:38:10;;;;;;;2.80;1.10;;;14.30;75.60;15.10;95942.00;;;;5108573;28;20190;-66
2023/04/25 08:41:01;;;;;;;3.80;0.73;;;14.10;71.80;14.70;95927.00;;;;5101108;28;20200;-71
2023/04/25 08:43:53;;;;;;;1.60;0.90;;;13.90;74.40;14.70;95937.00;;;;5107022;28;20615;-62
2023/04/25 08:46:42;;;;;;;0.77;0.73;;;13.70;75.50;14.60;95941.00;;;;5102772;28;20229;-66
2023/04/25 08:49:32;;;;;;;0.83;0.83;;;13.60;69.40;15.10;95943.00;;;;5109911;28;20190;-66
2023/04/25 08:52:24;;;;;;;2.77;2.57;;;13.60;70.60;15.40;95949.00;;;;5096802;28;20308;-67
2023/04/25 08:55:14;;;;;;;4.00;1.37;;;13.70;72.90;15.40;95942.00;;;;5100509;28;20247;-65
2023/04/25 08:58:02;;;;;;;1.63;0.70;;;13.70;73.50;15.50;95950.00;;;;5096274;28;20202;-65
2023/04/25 09:00:53;;;;;;;0.63;0.63;;;13.80;72.10;14.70;95933.00;;;;5101354;28;20187;-70
2023/04/25 09:03:43;;;;;;;1.37;0.80;;;13.80;71.50;14.40;95942.00;;;;5107559;28;20692;-64
2023/04/25 09:06:34;;;;;;;1.20;0.67;;;13.70;70.50;14.30;95940.00;;;;5102094;28;20710;-64
2023/04/25 09:09:22;;;;;;;1.30;0.83;;;13.70;69.80;14.80;95942.00;;;;5100415;28;20209;-72
2023/04/25 09:12:11;;;;;;;0.70;0.70;;;13.70;71.20;14.90;95954.00;;;;5104783;28;20211;-65
2023/04/25 09:15:07;;;;;;;4.27;0.70;;;13.70;69.40;15.10;95958.00;;;;5107882;28;20227;-66
2023/04/25 09:17:58;;;;;;;1.90;1.00;;;13.70;68.60;15.80;95970.00;;;;5106241;28;20211;-65
2023/04/25 09:20:47;;;;;;;2.80;0.67;;;13.80;73.00;15.30;95954.00;;;;5103710;28;20203;-65
2023/04/25 09:23:46;;;;;;;1.93;1.00;;;13.90;69.50;15.70;95958.00;;;;5106037;28;20203;-67
2023/04/25 09:26:35;;;;;;;0.70;0.70;;;14.00;68.60;16.10;95963.00;;;;5108727;28;20255;-67
2023/04/25 09:29:31;;;;;;;1.53;1.00;;;14.10;68.30;16.90;95959.00;;;;5107339;28;20199;-67
2023/04/25 09:32:22;;;;;;;0.97;0.53;;;14.30;70.10;16.50;95952.00;;;;5103418;28;20698;-67
2023/04/25 09:35:24;;;;;;;2.53;0.80;;;14.50;68.60;16.60;95939.00;;;;5108340;28;20199;-63
2023/04/25 09:38:18;;;;;;;0.73;0.73;;;14.70;68.50;17.00;95944.00;;;;5106018;28;20566;-66
2023/04/25 09:41:06;;;;;;;1.30;0.70;;;14.80;70.20;17.50;95948.00;;;;5098470;28;20199;-66
2023/04/25 09:43:58;;;;;;;0.50;0.50;;;15.00;70.60;17.10;95951.00;;;;5106624;28;20191;-67
2023/04/25 09:46:53;;;;;;;3.23;0.70;;;15.20;69.50;16.70;95954.00;;;;5107800;28;20577;-66
2023/04/25 09:49:43;;;;;;;0.70;0.67;;;15.20;66.60;16.20;95926.00;;;;5105195;28;20194;-66
2023/04/25 09:52:33;;;;;;;1.53;0.73;;;15.10;65.30;17.00;95916.00;;;;5104344;28;20731;-65
2023/04/25 09:55:22;;;;;;;0.77;0.77;;;15.20;64.60;17.20;95934.00;;;;5106397;28;20251;-67
2023/04/25 09:58:12;;;;;;;0.97;0.87;;;15.30;67.90;16.60;95917.00;;;;5104610;27;20198;-63
2023/04/25 10:01:04;;;;;;;1.40;0.67;;;15.40;63.30;16.30;95927.00;;;;5103967;28;20544;-71
2023/04/25 10:03:55;;;;;;;2.27;0.80;;;15.20;65.40;17.30;95923.00;;;;5112086;27;20194;-66
2023/04/25 10:06:45;;;;;;;2.90;1.13;;;15.30;65.50;16.70;95911.00;;;;5105562;28;20221;-70
2023/04/25 10:09:39;;;;;;;1.90;0.83;;;15.40;65.90;17.30;95917.00;;;;5106982;28;20248;-66
2023/04/25 10:12:28;;;;;;;0.70;0.53;;;15.60;64.00;16.10;95905.00;;;;5083411;28;20227;-72
2023/04/25 10:15:17;;;;;;;1.50;0.60;;;15.40;62.80;16.20;95899.00;;;;5099922;28;20195;-64
2023/04/25 10:18:07;;;;;;;2.10;0.70;;;15.40;61.30;16.70;95897.00;;;;5107108;28;20214;-67
2023/04/25 10:20:58;;;;;;;2.43;0.83;;;15.50;62.60;17.60;95903.00;;;;5108430;28;20195;-67
2023/04/25 10:23:47;;;;;;;0.70;0.70;;;15.60;62.60;18.20;95882.00;;;;5103177;28;20268;-65
2023/04/25 10:26:38;;;;;;;0.97;0.53;;;16.00;65.10;17.40;95868.00;;;;5099704;28;20724;-66
2023/04/25 10:29:27;;;;;;;0.60;0.60;;;16.10;61.50;17.50;95869.00;;;;5107737;27;20214;-66
2023/04/25 10:32:16;;;;;;;2.33;0.90;;;16.20;61.30;17.40;95873.00;;;;5098067;27;20222;-64
2023/04/25 10:35:16;;;;;;;5.27;2.57;;;16.30;62.10;18.00;95884.00;;;;5107576;28;20199;-73
2023/04/25 10:38:09;;;;;;;0.70;0.70;;;16.40;62.20;17.30;95885.00;;;;5095544;28;20202;-69
2023/04/25 10:41:08;;;;;;;0.50;0.50;;;16.30;60.30;17.00;95903.00;;;;5095765;28;20255;-64
2023/04/25 10:44:02;;;;;;;1.20;1.00;;;16.10;58.80;17.50;95896.00;;;;5103345;28;20681;-67
2023/04/25 10:46:50;;;;;;;2.67;0.80;;;16.00;59.90;16.50;95885.00;;;;5096560;28;20288;-63
2023/04/25 10:49:43;;;;;;;3.77;0.93;;;15.80;59.70;16.90;95882.00;;;;5093280;28;20198;-67
2023/04/25 10:52:35;;;;;;;2.57;1.10;;;15.60;60.10;17.10;95890.00;;;;5104437;28;20222;-67
2023/04/25 10:55:23;;;;;;;3.33;1.17;;;15.50;60.70;17.70;95906.00;;;;5102401;28;20278;-67
2023/04/25 10:58:12;;;;;;;2.17;1.60;;;15.60;60.70;17.30;95883.00;;;;5103806;28;20255;-67
2023/04/25 11:01:02;;;;;;;2.37;0.90;;;15.60;60.70;17.90;95892.00;;;;5102057;28;20198;-66
2023/04/25 11:03:59;;;;;;;1.40;1.30;;;15.70;61.40;18.40;95889.00;;;;5108688;28;20191;-67
2023/04/25 11:07:06;;;;;;;0.67;0.60;;;15.90;62.50;17.60;95890.00;;;;5105327;28;20217;-68
2023/04/25 11:09:55;;;;;;;1.80;0.60;;;15.80;59.60;18.00;95881.00;;;;5102876;28;20255;-66
2023/04/25 11:12:45;;;;;;;1.00;0.73;;;15.90;60.30;17.80;95900.00;;;;5100656;28;20295;-66
2023/04/25 11:15:34;;;;;;;0.80;0.70;;;16.10;59.10;17.00;95903.00;;;;5097750;28;20194;-70
2023/04/25 11:18:27;;;;;;;2.70;0.70;;;15.90;59.70;17.20;95932.00;;;;5096141;28;20284;-65
2023/04/25 11:21:17;;;;;;;2.03;0.60;;;15.70;62.30;16.40;95907.00;;;;5104622;28;20191;-65
2023/04/25 11:24:06;;;;;;;2.43;1.43;;;15.40;64.60;16.90;95929.00;;;;5108040;28;20199;-65
2023/04/25 11:26:55;;;;;;;1.07;0.97;;;15.30;66.30;16.20;95914.00;;;;5099649;28;20584;-64
2023/04/25 11:29:44;;;;;;;0.63;0.63;;;15.10;67.70;16.40;95920.00;;;;5096518;28;20276;-66
2023/04/25 11:32:32;;;;;;;1.10;0.97;;;14.90;68.00;16.70;95912.00;;;;5100900;28;20219;-67
2023/04/25 11:35:25;;;;;;;1.37;0.70;;;14.90;68.50;15.70;95909.00;;;;5104038;28;20572;-63
2023/04/25 11:38:13;;;;;;;0.93;0.90;;;14.70;70.30;16.00;95904.00;;;;5106581;28;20207;-72
2023/04/25 11:41:02;;;;;;;2.50;0.70;;;14.80;70.10;17.20;95898.00;;;;5102147;28;20680;-69
2023/04/25 11:43:51;;;;;;;0.77;0.57;;;15.00;70.90;17.50;95916.00;;;;5103201;28;20239;-64
2023/04/25 11:46:40;;;;;;;1.70;0.90;;;15.30;68.90;17.20;95907.00;;;;5098714;28;20236;-67
2023/04/25 11:49:32;;;;;;;0.40;0.40;;;15.50;70.80;15.90;95888.00;;;;5102635;28;20432;-72
2023/04/25 11:52:22;;;;;;;2.13;0.70;;;15.40;68.90;16.10;95886.00;;;;5100956;28;20223;-69
2023/04/25 11:55:14;;;;;;;0.60;0.60;;;15.20;70.00;17.30;95886.00;;;;5100973;28;20201;-73
2023/04/25 11:58:04;;;;;;;0.50;0.50;;;15.30;70.80;17.40;95887.00;;;;5100243;28;20195;-69
2023/04/25 12:00:53;;;;;;;0.97;0.63;;;15.60;70.90;18.20;95900.00;;;;5104684;28;20680;-66
2023/04/25 12:03:47;;;;;;;1.83;0.53;;;15.70;72.10;18.30;95887.00;;;;5095268;28;20743;-67
2023/04/25 12:06:39;;;;;;;0.70;0.70;;;16.00;69.40;19.50;95882.00;;;;5092656;28;20229;-67
2023/04/25 12:09:34;;;;;;;0.90;0.67;;;16.40;68.80;19.40;95887.00;;;;5104561;28;20333;-67
2023/04/25 12:12:28;;;;;;;0.73;0.70;;;16.80;66.40;19.00;95889.00;;;;5105153;28;20624;-67
2023/04/25 12:15:19;;;;;;;1.03;0.60;;;17.80;66.10;18.20;95885.00;;;;5102224;28;20195;-70
2023/04/25 12:18:08;;;;;;;0.63;0.50;;;17.10;65.10;19.20;95879.00;;;;5098579;28;20214;-69
2023/04/25 12:20:57;;;;;;;1.53;0.70;;;17.00;64.50;19.00;95864.00;;;;5102669;28;20217;-73
2023/04/25 12:23:46;;;;;;;1.57;0.80;;;17.20;65.20;18.30;95893.00;;;;5105033;28;20283;-68
2023/04/25 12:26:49;;;;;;;0.83;0.40;;;17.00;60.70;18.30;95882.00;;;;5090891;28;20226;-67
2023/04/25 12:29:38;;;;;;;1.43;0.60;;;16.90;60.10;17.80;95869.00;;;;5094280;28;20203;-67
2023/04/25 12:32:36;;;;;;;0.60;0.47;;;16.70;60.60;18.60;95870.00;;;;5102708;28;20224;-67
2023/04/25 12:35:25;;;;;;;0.57;0.57;;;16.60;61.80;18.80;95862.00;;;;5100296;28;20213;-71
2023/04/25 12:38:23;;;;;;;2.77;0.60;;;16.70;62.10;17.60;95865.00;;;;5108873;28;20205;-68
2023/04/25 12:41:11;;;;;;;0.60;0.60;;;16.50;60.00;17.80;95858.00;;;;5110430;28;20354;-66
2023/04/25 12:44:01;;;;;;;0.70;0.70;;;16.40;60.90;18.30;95871.00;;;;5102788;28;20264;-67